Time;durP1;ratioP1;P1;durP2;ratioP2;P2;SDS_P1;SDS_P2;PMS_P1;PMS_P2;Temp;Humidity;BMP_temperature;BMP_pressure;BME280_temperature;BME280_humidity;BME280_pressure;Samples;Min_cycle;Max_cycle;Signal;HPM_P1;HPM_P2
2021/12/17 00:00:26;;;;;;;59.15;22.83;;;8.60;99.90;;;;;;2149012;66;20247;-68
2021/12/17 00:03:17;;;;;;;43.33;20.55;;;8.60;99.90;;;;;;2139005;67;20187;-69
2021/12/17 00:06:15;;;;;;;42.65;18.70;;;8.60;99.90;;;;;;2146376;66;20222;-68
2021/12/17 00:09:05;;;;;;;42.03;18.25;;;8.60;99.90;;;;;;2150611;66;20213;-69
2021/12/17 00:11:47;;;;;;;44.22;18.92;;;8.60;99.90;;;;;;2150299;66;20390;-69
2021/12/17 00:14:36;;;;;;;41.70;18.13;;;8.60;99.90;;;;;;2149790;66;20823;-68
2021/12/17 00:17:24;;;;;;;40.15;16.42;;;8.60;99.90;;;;;;2151070;66;20196;-68
2021/12/17 00:50:11;;;;;;;25.77;13.57;;;8.50;99.90;;;;;;2110967;67;20198;-68
2021/12/17 00:52:56;;;;;;;25.15;11.55;;;8.50;99.90;;;;;;2103268;68;20317;-68
2021/12/17 00:55:38;;;;;;;24.52;12.05;;;8.50;99.90;;;;;;2100764;68;20293;-68
2021/12/17 00:58:21;;;;;;;26.45;11.20;;;8.50;99.90;;;;;;2097729;68;20238;-69
2021/12/17 01:01:05;;;;;;;;;;;8.50;99.90;;;;;;2109891;67;20300;-68
2021/12/17 01:03:47;;;;;;;21.92;10.40;;;8.50;99.90;;;;;;2108408;67;20516;-70
2021/12/17 01:06:29;;;;;;;21.98;10.48;;;8.50;99.90;;;;;;2109088;67;20301;-68
2021/12/17 01:09:14;;;;;;;19.88;9.60;;;8.40;99.90;;;;;;2115424;67;20331;-68
2021/12/17 01:11:57;;;;;;;19.42;9.43;;;8.40;99.90;;;;;;2105001;67;20163;-69
2021/12/17 01:14:42;;;;;;;18.42;9.07;;;8.40;99.90;;;;;;2113303;67;20272;-69
2021/12/17 01:17:32;;;;;;;14.43;8.00;;;8.40;99.90;;;;;;2120105;67;20180;-68
2021/12/17 01:24:00;;;;;;;8.35;4.65;;;8.40;99.90;;;;;;2135158;67;20200;-68
2021/12/17 01:35:31;;;;;;;5.68;4.07;;;8.50;99.90;;;;;;2159152;66;20173;-67
2021/12/17 01:44:30;;;;;;;6.18;3.70;;;8.40;99.90;;;;;;2131915;67;20707;-67
2021/12/17 01:47:18;;;;;;;5.85;3.65;;;8.50;99.90;;;;;;2147286;66;20298;-68
2021/12/17 01:56:18;;;;;;;5.20;3.78;;;8.50;99.90;;;;;;2118017;67;20229;-69
2021/12/17 02:02:14;;;;;;;5.90;3.63;;;8.50;99.90;;;;;;2110669;67;20225;-69
2021/12/17 02:04:58;;;;;;;8.52;3.88;;;8.50;99.90;;;;;;2123128;67;20264;-69
2021/12/17 02:07:43;;;;;;;;;;;8.50;99.90;;;;;;2108494;67;20544;-68
2021/12/17 02:20:39;;;;;;;7.00;4.10;;;8.50;99.90;;;;;;2123679;67;20179;-69
2021/12/17 02:32:18;;;;;;;9.15;4.32;;;8.50;99.90;;;;;;2127930;67;20221;-68
2021/12/17 02:37:45;;;;;;;5.80;4.05;;;8.40;99.90;;;;;;2141451;66;20203;-68
2021/12/17 02:46:30;;;;;;;8.10;4.57;;;8.40;99.90;;;;;;2153721;66;20629;-69
2021/12/17 02:49:15;;;;;;;9.50;5.40;;;8.40;99.90;;;;;;2152883;66;20205;-69
2021/12/17 02:51:58;;;;;;;7.68;4.70;;;8.70;99.90;;;;;;2159351;66;20310;-69
2021/12/17 02:54:41;;;;;;;7.60;4.50;;;8.40;99.90;;;;;;2143504;66;20220;-69
2021/12/17 02:57:26;;;;;;;7.45;4.90;;;8.30;99.90;;;;;;2127096;67;20211;-68
2021/12/17 03:00:12;;;;;;;7.00;4.43;;;8.30;99.90;;;;;;2131110;67;20352;-68
2021/12/17 03:02:57;;;;;;;7.55;4.65;;;8.30;99.90;;;;;;2122000;67;20902;-68
2021/12/17 03:05:43;;;;;;;9.52;5.18;;;8.40;99.90;;;;;;2124563;67;20796;-68
2021/12/17 03:08:29;;;;;;;8.13;5.10;;;8.60;99.90;;;;;;2115048;67;20314;-68
2021/12/17 03:11:14;;;;;;;7.85;4.88;;;8.40;99.90;;;;;;2116729;67;20829;-68
2021/12/17 03:13:57;;;;;;;7.75;4.78;;;8.40;99.90;;;;;;2121307;67;20275;-68
2021/12/17 03:16:54;;;;;;;8.65;4.78;;;8.40;99.90;;;;;;2137104;67;20192;-67
2021/12/17 03:25:52;;;;;;;6.50;3.85;;;8.40;99.90;;;;;;2149232;66;20374;-70
2021/12/17 03:28:38;;;;;;;6.32;3.83;;;8.50;99.90;;;;;;2147831;66;20203;-68
2021/12/17 03:31:22;;;;;;;6.25;3.95;;;8.40;99.90;;;;;;2139376;66;20813;-69
2021/12/17 03:34:20;;;;;;;7.18;4.47;;;8.40;99.90;;;;;;2142410;66;20190;-69
2021/12/17 03:37:05;;;;;;;8.20;4.25;;;8.50;99.90;;;;;;2129617;66;20760;-69
2021/12/17 03:39:51;;;;;;;6.13;4.72;;;8.40;99.90;;;;;;2136649;66;20267;-70
2021/12/17 03:42:38;;;;;;;7.43;4.38;;;8.50;99.90;;;;;;2135691;66;20324;-69
2021/12/17 03:45:20;;;;;;;6.28;4.25;;;8.40;99.90;;;;;;2133607;67;20333;-69
2021/12/17 03:48:02;;;;;;;6.15;4.07;;;8.50;99.90;;;;;;2155176;66;20427;-68
2021/12/17 03:50:44;;;;;;;9.30;4.60;;;8.40;99.90;;;;;;2150038;66;20190;-69
2021/12/17 03:53:27;;;;;;;7.10;4.88;;;8.40;99.90;;;;;;2146324;66;20182;-69
2021/12/17 03:56:12;;;;;;;7.60;4.25;;;8.40;99.90;;;;;;2155796;66;20226;-69
2021/12/17 03:58:55;;;;;;;10.48;5.28;;;8.40;99.90;;;;;;2156857;66;20209;-68
2021/12/17 04:01:38;;;;;;;7.07;4.57;;;8.40;99.90;;;;;;2135993;67;20298;-68
2021/12/17 04:04:22;;;;;;;8.55;4.95;;;8.40;99.90;;;;;;2147604;66;20196;-69
2021/12/17 04:07:07;;;;;;;9.73;5.03;;;8.40;99.90;;;;;;2142494;66;20192;-68
2021/12/17 04:09:52;;;;;;;9.40;4.97;;;8.40;99.90;;;;;;2150842;66;20265;-69
2021/12/17 04:12:48;;;;;;;10.55;5.07;;;8.30;99.90;;;;;;2152005;66;20587;-69
2021/12/17 04:15:37;;;;;;;10.07;5.75;;;8.40;99.90;;;;;;2152261;66;20249;-69
2021/12/17 04:18:19;;;;;;;11.40;5.88;;;8.30;99.90;;;;;;2143983;66;20848;-68
2021/12/17 04:21:02;;;;;;;10.38;5.85;;;8.30;99.90;;;;;;2148709;66;20363;-69
2021/12/17 04:23:46;;;;;;;11.40;6.97;;;8.30;99.90;;;;;;2146919;66;20316;-68
2021/12/17 04:26:28;;;;;;;14.10;6.97;;;8.30;99.90;;;;;;2131113;67;20731;-68
2021/12/17 04:29:10;;;;;;;12.80;7.10;;;8.30;99.90;;;;;;2131422;67;20395;-68
2021/12/17 04:31:55;;;;;;;14.05;7.90;;;8.30;99.90;;;;;;2134837;67;20343;-68
2021/12/17 04:34:37;;;;;;;15.00;8.50;;;8.30;99.90;;;;;;2132662;66;20372;-69
2021/12/17 04:37:19;;;;;;;14.85;8.68;;;8.20;99.90;;;;;;2139831;66;21644;-69
2021/12/17 04:40:02;;;;;;;16.23;9.48;;;8.30;99.90;;;;;;2139747;66;20190;-69
2021/12/17 04:46:30;;;;;;;18.63;10.95;;;8.30;99.90;;;;;;2144165;66;20374;-69
2021/12/17 04:57:20;;;;;;;16.83;10.50;;;8.30;99.90;;;;;;2132422;66;20323;-70
2021/12/17 04:58:09;;;;;;;20.95;11.77;;;8.20;99.90;;;;;;2143276;66;20246;-68
2021/12/17 05:00:52;;;;;;;22.50;12.90;;;8.20;99.90;;;;;;2139089;66;20170;-69
2021/12/17 05:03:37;;;;;;;16.27;10.75;;;8.20;99.90;;;;;;2124393;67;20298;-69
2021/12/17 05:06:19;;;;;;;21.02;12.45;;;8.20;99.90;;;;;;2129281;67;20441;-68
2021/12/17 05:09:10;;;;;;;19.60;11.73;;;8.10;99.90;;;;;;2132148;67;20211;-69
2021/12/17 05:21:04;;;;;;;19.48;12.25;;;8.20;99.90;;;;;;2145294;66;20257;-69
2021/12/17 05:23:46;;;;;;;21.27;11.80;;;8.20;99.90;;;;;;2132569;67;20235;-69
2021/12/17 05:26:28;;;;;;;23.30;13.00;;;8.20;99.90;;;;;;2132157;67;20638;-68
2021/12/17 05:29:10;;;;;;;23.98;14.00;;;8.20;99.90;;;;;;2105652;67;20261;-68
2021/12/17 05:31:52;;;;;;;22.67;12.57;;;8.20;99.90;;;;;;2123482;67;20184;-69
2021/12/17 05:34:35;;;;;;;28.98;13.90;;;8.20;99.90;;;;;;2113910;67;20224;-69
2021/12/17 05:37:21;;;;;;;28.17;13.57;;;8.20;99.90;;;;;;2107912;67;20288;-68
2021/12/17 05:40:05;;;;;;;;;;;8.20;99.90;;;;;;2111833;67;20173;-68
2021/12/17 05:42:50;;;;;;;21.70;12.75;;;8.10;99.90;;;;;;2101173;67;20153;-68
2021/12/17 05:48:30;;;;;;;25.88;13.10;;;8.20;99.90;;;;;;2114368;67;20751;-69
2021/12/17 05:51:14;;;;;;;25.25;13.35;;;8.20;99.90;;;;;;2105895;67;20251;-68
2021/12/17 05:53:58;;;;;;;23.52;12.23;;;8.20;99.90;;;;;;2120860;67;20296;-69
2021/12/17 05:56:40;;;;;;;24.02;13.20;;;8.20;99.90;;;;;;2139179;66;20458;-70
2021/12/17 05:59:22;;;;;;;32.28;13.90;;;8.10;99.90;;;;;;2139564;66;20360;-69
2021/12/17 06:02:10;;;;;;;24.65;12.68;;;8.20;99.90;;;;;;2131471;66;20751;-69
2021/12/17 06:04:55;;;;;;;24.65;13.10;;;8.20;99.90;;;;;;2141958;66;20852;-70
2021/12/17 06:07:36;;;;;;;20.10;11.82;;;8.30;99.90;;;;;;2158522;66;20257;-69
2021/12/17 06:10:18;;;;;;;31.05;13.90;;;8.20;99.90;;;;;;2156381;66;20309;-69
2021/12/17 06:13:01;;;;;;;20.77;11.77;;;8.20;99.90;;;;;;2153255;66;20188;-68
2021/12/17 06:15:42;;;;;;;25.98;12.68;;;8.20;99.90;;;;;;2147209;66;20331;-70
2021/12/17 06:18:29;;;;;;;25.67;12.43;;;8.30;99.90;;;;;;2150689;66;20261;-69
2021/12/17 06:21:15;;;;;;;25.25;13.02;;;8.20;99.90;;;;;;2152861;66;20696;-68
2021/12/17 06:23:59;;;;;;;25.38;12.00;;;8.10;99.90;;;;;;2147143;66;20339;-69
2021/12/17 06:26:41;;;;;;;27.75;12.90;;;8.10;99.90;;;;;;2133686;67;20183;-70
2021/12/17 06:29:25;;;;;;;26.25;13.68;;;8.10;99.90;;;;;;2139639;67;20336;-70
2021/12/17 06:32:10;;;;;;;22.58;11.93;;;8.00;99.90;;;;;;2146764;66;20507;-69
2021/12/17 06:34:52;;;;;;;28.42;12.95;;;8.00;99.90;;;;;;2135604;66;20341;-69
2021/12/17 06:37:34;;;;;;;23.05;11.40;;;8.00;99.90;;;;;;2154062;66;20178;-69
2021/12/17 06:40:17;;;;;;;23.27;12.18;;;8.00;99.90;;;;;;2129939;66;20696;-68
2021/12/17 06:43:03;;;;;;;22.73;12.35;;;8.00;99.90;;;;;;2138588;67;20241;-69
2021/12/17 06:46:01;;;;;;;29.05;12.52;;;8.00;99.90;;;;;;2132770;67;20171;-71
2021/12/17 06:49:08;;;;;;;26.65;12.63;;;8.00;99.90;;;;;;2124932;67;20193;-69
2021/12/17 07:06:10;;;;;;;26.63;12.50;;;8.00;99.90;;;;;;2122533;67;20616;-68
2021/12/17 07:10:01;;;;;;;31.83;13.20;;;8.00;99.90;;;;;;2132529;66;20396;-68
2021/12/17 07:17:32;;;;;;;27.20;12.18;;;8.20;99.90;;;;;;2198770;65;20190;-68
2021/12/17 07:23:36;;;;;;;22.30;11.43;;;8.10;99.90;;;;;;2218793;64;20597;-69
2021/12/17 07:40:09;;;;;;;25.70;11.50;;;8.50;99.90;;;;;;2237491;63;20795;-69
2021/12/17 07:42:46;;;;;;;20.00;11.60;;;8.10;99.90;;;;;;2238281;63;20190;-68
2021/12/17 07:45:23;;;;;;;23.90;12.32;;;8.20;99.90;;;;;;2240317;63;20568;-69
2021/12/17 07:47:51;;;;;;;21.38;11.90;;;8.20;99.90;;;;;;2246254;63;20196;-69
2021/12/17 07:50:18;;;;;;;21.13;11.20;;;8.20;99.90;;;;;;2239524;63;20648;-69
2021/12/17 07:53:09;;;;;;;20.73;10.57;;;8.20;99.90;;;;;;2229496;64;20158;-69
2021/12/17 07:55:51;;;;;;;21.00;12.07;;;8.20;99.90;;;;;;2221080;64;20349;-67
2021/12/17 07:58:36;;;;;;;24.67;10.60;;;8.20;99.90;;;;;;2197884;65;20185;-70
2021/12/17 08:01:19;;;;;;;24.10;10.98;;;8.30;99.90;;;;;;2191919;65;20165;-68
2021/12/17 08:04:02;;;;;;;20.92;11.10;;;8.30;99.90;;;;;;2190709;65;20741;-68
2021/12/17 08:06:45;;;;;;;19.45;10.90;;;8.30;99.90;;;;;;2175921;65;20586;-69
2021/12/17 08:09:28;;;;;;;20.98;11.68;;;8.30;99.90;;;;;;2175926;65;20159;-69
2021/12/17 08:12:10;;;;;;;22.17;11.63;;;8.30;99.90;;;;;;2167959;65;20369;-70
2021/12/17 08:14:52;;;;;;;20.02;11.40;;;8.40;99.90;;;;;;2153126;66;20406;-70
2021/12/17 08:26:27;;;;;;;23.63;11.70;;;8.50;99.90;;;;;;2131282;67;20425;-68
2021/12/17 08:29:24;;;;;;;22.52;11.50;;;8.50;99.90;;;;;;2124101;67;20429;-74
2021/12/17 08:31:56;;;;;;;20.15;11.77;;;8.60;99.90;;;;;;2122251;67;20665;-73
2021/12/17 08:34:31;;;;;;;17.23;12.20;;;8.60;99.90;;;;;;2124286;67;20176;-75
2021/12/17 08:37:10;;;;;;;18.98;12.00;;;8.80;99.90;;;;;;2125711;67;20756;-72
2021/12/17 08:39:40;;;;;;;20.10;11.85;;;9.10;99.90;;;;;;2130141;67;20324;-70
2021/12/17 08:42:17;;;;;;;23.08;10.70;;;8.70;99.90;;;;;;2139042;66;20297;-73
2021/12/17 08:45:08;;;;;;;19.25;10.90;;;8.70;99.90;;;;;;2145297;66;20202;-72
2021/12/17 08:48:02;;;;;;;20.85;12.02;;;8.70;99.90;;;;;;2151077;66;20301;-71
2021/12/17 08:50:38;;;;;;;18.65;11.32;;;8.80;99.90;;;;;;2152092;66;20299;-71
2021/12/17 08:53:15;;;;;;;18.60;10.75;;;8.70;99.90;;;;;;2157556;65;20680;-72
2021/12/17 08:55:53;;;;;;;16.02;10.65;;;8.80;99.90;;;;;;2182411;65;20680;-73
2021/12/17 08:58:32;;;;;;;17.52;10.43;;;8.80;99.90;;;;;;2204087;65;20168;-73
2021/12/17 09:01:23;;;;;;;14.43;8.75;;;8.80;99.90;;;;;;2196715;65;20753;-72
2021/12/17 09:04:16;;;;;;;15.75;9.18;;;8.90;99.90;;;;;;2193423;65;20182;-73
2021/12/17 09:06:52;;;;;;;15.27;9.90;;;9.00;99.90;;;;;;2195875;65;20275;-73
2021/12/17 09:09:22;;;;;;;13.07;8.57;;;8.90;99.90;;;;;;2197563;65;20191;-73
2021/12/17 09:11:59;;;;;;;14.15;9.25;;;9.40;99.90;;;;;;2197501;65;20194;-71
2021/12/17 09:14:36;;;;;;;16.35;9.30;;;8.90;99.90;;;;;;2196746;65;20219;-71
2021/12/17 09:17:12;;;;;;;14.95;9.52;;;9.00;99.90;;;;;;2196657;65;20212;-71
2021/12/17 09:19:55;;;;;;;18.00;9.93;;;9.00;99.90;;;;;;2211859;64;20180;-72
2021/12/17 09:22:35;;;;;;;14.25;9.15;;;9.00;99.90;;;;;;2228883;64;20351;-73
2021/12/17 09:25:26;;;;;;;15.48;9.93;;;9.00;99.90;;;;;;2223593;64;20347;-73
2021/12/17 09:28:04;;;;;;;16.95;9.63;;;9.10;99.90;;;;;;2228541;64;20311;-72
2021/12/17 09:30:40;;;;;;;15.07;9.15;;;9.10;99.90;;;;;;2234380;64;20199;-73
2021/12/17 09:33:23;;;;;;;16.88;9.75;;;9.10;99.90;;;;;;2229717;64;20308;-72
2021/12/17 09:35:59;;;;;;;15.13;8.73;;;9.10;99.90;;;;;;2227853;64;20268;-75
2021/12/17 09:39:00;;;;;;;14.40;8.73;;;9.10;99.90;;;;;;2206425;65;20199;-74
2021/12/17 09:41:37;;;;;;;17.27;10.50;;;9.10;99.90;;;;;;2214052;64;20340;-69
2021/12/17 09:44:16;;;;;;;15.90;10.05;;;9.20;99.90;;;;;;2225662;64;20583;-74
2021/12/17 09:46:57;;;;;;;12.82;8.63;;;9.20;99.90;;;;;;2231446;64;20227;-74
2021/12/17 09:49:33;;;;;;;13.45;8.05;;;9.30;99.90;;;;;;2222632;64;20209;-74
2021/12/17 09:52:10;;;;;;;11.88;7.97;;;9.30;99.90;;;;;;2228492;64;20360;-75
2021/12/17 09:54:47;;;;;;;12.27;7.25;;;9.30;99.90;;;;;;2222207;64;20206;-74
2021/12/17 09:57:26;;;;;;;11.95;6.75;;;9.30;99.90;;;;;;2230498;64;20795;-72
2021/12/17 10:00:21;;;;;;;11.93;6.88;;;9.40;99.90;;;;;;2222444;64;20204;-74
2021/12/17 10:03:02;;;;;;;10.60;6.80;;;9.40;99.90;;;;;;2221392;64;20184;-74
2021/12/17 10:05:42;;;;;;;12.73;6.95;;;9.40;99.90;;;;;;2214540;64;20213;-73
2021/12/17 10:08:24;;;;;;;10.38;6.75;;;9.50;99.90;;;;;;2214124;64;20184;-72
2021/12/17 10:11:06;;;;;;;13.45;6.90;;;9.40;99.90;;;;;;2214087;64;20385;-72
2021/12/17 10:14:36;;;;;;;11.98;6.93;;;9.40;99.90;;;;;;2210112;64;20169;-73
2021/12/17 10:17:29;;;;;;;13.02;6.65;;;9.40;99.90;;;;;;2200295;64;20181;-73
2021/12/17 10:20:21;;;;;;;10.55;6.88;;;9.40;99.90;;;;;;2203937;65;20192;-72
2021/12/17 10:23:12;;;;;;;15.05;6.95;;;10.20;99.90;;;;;;2198379;65;20659;-72
2021/12/17 10:25:49;;;;;;;12.93;7.70;;;9.50;99.90;;;;;;2198696;65;20595;-71
2021/12/17 10:28:27;;;;;;;15.98;7.38;;;9.50;99.90;;;;;;2198036;65;20201;-71
2021/12/17 10:31:04;;;;;;;13.23;7.60;;;9.50;99.90;;;;;;2198240;65;20194;-73
2021/12/17 10:34:01;;;;;;;15.93;8.50;;;9.40;99.90;;;;;;2190946;65;20315;-73
2021/12/17 10:36:45;;;;;;;13.60;7.82;;;9.60;99.90;;;;;;2187002;65;20762;-73
2021/12/17 10:39:31;;;;;;;10.48;6.75;;;9.60;99.90;;;;;;2182610;65;20194;-72
2021/12/17 10:42:24;;;;;;;12.07;6.80;;;9.50;99.90;;;;;;2168651;66;20195;-73
2021/12/17 10:45:12;;;;;;;11.85;7.22;;;9.50;99.90;;;;;;2161833;66;20173;-74
2021/12/17 10:48:20;;;;;;;11.60;7.00;;;9.60;99.90;;;;;;2162727;66;20350;-73
2021/12/17 10:54:22;;;;;;;10.60;6.97;;;9.60;99.90;;;;;;2139272;67;20884;-73
2021/12/17 10:57:07;;;;;;;9.55;6.50;;;9.60;99.90;;;;;;2136341;66;20241;-70
2021/12/17 10:59:49;;;;;;;11.02;6.93;;;9.70;99.90;;;;;;2131844;67;20364;-72
2021/12/17 11:02:37;;;;;;;9.10;6.15;;;9.80;99.90;;;;;;2131731;67;20255;-72
2021/12/17 11:05:23;;;;;;;7.90;6.03;;;9.80;99.90;;;;;;2124690;67;20225;-74
2021/12/17 11:08:20;;;;;;;8.88;4.85;;;9.90;99.90;;;;;;2114972;67;20228;-74
2021/12/17 11:11:12;;;;;;;8.77;5.35;;;9.90;99.90;;;;;;2113480;67;20258;-71
2021/12/17 11:13:57;;;;;;;10.15;4.78;;;10.00;99.90;;;;;;2110102;67;20169;-71
2021/12/17 11:16:39;;;;;;;8.05;4.45;;;10.00;99.90;;;;;;2105680;67;20676;-72
2021/12/17 11:19:24;;;;;;;4.93;3.75;;;10.00;99.90;;;;;;2120195;67;20377;-72
2021/12/17 11:22:09;;;;;;;6.47;4.15;;;10.00;99.90;;;;;;2124761;67;20315;-72
2021/12/17 11:24:54;;;;;;;7.78;4.80;;;10.00;99.90;;;;;;2105411;67;20257;-71
2021/12/17 11:27:36;;;;;;;6.22;4.43;;;10.00;99.90;;;;;;2110865;67;20359;-72
2021/12/17 11:30:24;;;;;;;8.65;4.80;;;10.00;99.90;;;;;;2124285;67;20314;-73
2021/12/17 11:33:05;;;;;;;7.93;5.03;;;10.00;99.90;;;;;;2128501;67;20266;-72
2021/12/17 11:35:50;;;;;;;5.05;3.90;;;10.10;99.90;;;;;;2153236;66;20352;-73
2021/12/17 11:38:58;;;;;;;4.60;3.60;;;10.30;99.90;;;;;;2158634;66;20330;-73
2021/12/17 11:41:56;;;;;;;7.60;4.28;;;10.10;99.90;;;;;;2153084;66;20649;-73
2021/12/17 11:44:40;;;;;;;5.85;4.50;;;10.00;99.90;;;;;;2138707;67;21110;-73
2021/12/17 11:47:13;;;;;;;20.58;16.95;;;10.10;99.90;;;;;;2142329;66;20265;-72
2021/12/17 11:49:52;;;;;;;21.45;14.63;;;10.00;99.90;;;;;;2151971;66;20178;-73
2021/12/17 11:52:47;;;;;;;7.78;6.10;;;10.20;99.90;;;;;;2156623;66;20245;-73
2021/12/17 11:55:36;;;;;;;6.32;4.47;;;10.00;99.90;;;;;;2167971;66;20205;-74
2021/12/17 11:58:16;;;;;;;7.30;5.00;;;10.00;99.90;;;;;;2174750;65;20208;-75
2021/12/17 12:01:08;;;;;;;;;;;10.00;99.90;;;;;;2175583;65;20346;-74
2021/12/17 12:03:45;;;;;;;8.93;4.78;;;10.00;99.90;;;;;;2182563;65;20197;-74
2021/12/17 12:06:58;;;;;;;6.93;5.63;;;10.00;99.90;;;;;;2195862;65;20737;-73
2021/12/17 12:10:01;;;;;;;8.80;4.60;;;10.00;99.90;;;;;;2211029;64;20236;-78
2021/12/17 12:12:51;;;;;;;5.88;4.50;;;10.00;99.90;;;;;;2221778;64;20607;-72
2021/12/17 12:15:31;;;;;;;6.13;4.68;;;10.00;99.90;;;;;;2220983;64;20431;-75
2021/12/17 12:18:31;;;;;;;5.95;4.68;;;10.00;99.90;;;;;;2223231;63;20740;-70
2021/12/17 12:21:33;;;;;;;11.75;5.07;;;10.00;99.90;;;;;;2221608;64;20179;-70
2021/12/17 12:24:12;;;;;;;7.82;5.03;;;10.00;99.90;;;;;;2220826;64;20368;-70
2021/12/17 12:26:49;;;;;;;9.25;5.25;;;9.90;99.90;;;;;;2219340;64;20212;-70
2021/12/17 12:29:28;;;;;;;7.68;5.05;;;9.90;99.90;;;;;;2226922;64;20283;-71
2021/12/17 12:32:30;;;;;;;7.90;4.78;;;10.00;99.90;;;;;;2221080;64;20179;-71
2021/12/17 12:35:08;;;;;;;6.78;5.32;;;10.00;99.90;;;;;;2220799;64;20332;-71
2021/12/17 12:38:20;;;;;;;8.60;6.93;;;10.00;99.90;;;;;;2208512;64;20187;-71
2021/12/17 12:41:15;;;;;;;8.25;5.70;;;10.10;99.90;;;;;;2218906;64;20287;-73
2021/12/17 12:43:59;;;;;;;8.45;5.70;;;10.00;99.90;;;;;;2197651;65;20637;-72
2021/12/17 12:46:54;;;;;;;7.90;5.15;;;10.00;99.90;;;;;;2180449;65;20744;-71
2021/12/17 12:50:02;;;;;;;10.02;5.28;;;10.10;99.90;;;;;;2175240;65;20851;-73
2021/12/17 12:53:11;;;;;;;9.00;5.30;;;10.10;99.90;;;;;;2182373;65;20250;-72
2021/12/17 12:55:55;;;;;;;7.20;5.30;;;10.00;99.90;;;;;;2175223;65;20922;-71
2021/12/17 12:58:38;;;;;;;7.78;5.20;;;10.10;99.90;;;;;;2166375;65;20213;-71
2021/12/17 13:01:21;;;;;;;6.93;4.82;;;10.10;99.90;;;;;;2156541;66;20180;-72
2021/12/17 13:04:36;;;;;;;6.53;4.95;;;10.00;99.90;;;;;;2154381;66;20285;-71
2021/12/17 13:07:09;;;;;;;;;;;10.10;99.90;;;;;;2142856;66;20367;-73
2021/12/17 13:09:51;;;;;;;7.97;5.68;;;10.10;99.90;;;;;;2126457;67;20301;-73
2021/12/17 13:12:35;;;;;;;6.80;4.65;;;10.00;99.90;;;;;;2129329;67;20675;-74
2021/12/17 13:15:38;;;;;;;7.20;4.30;;;10.10;99.90;;;;;;2116153;67;20390;-72
2021/12/17 13:24:31;;;;;;;7.22;4.60;;;10.00;99.90;;;;;;2118156;67;20336;-70
2021/12/17 13:27:13;;;;;;;5.35;4.07;;;10.00;99.90;;;;;;2106915;67;20368;-71
2021/12/17 13:29:58;;;;;;;5.90;4.97;;;10.00;99.90;;;;;;2106014;67;20181;-73
2021/12/17 13:32:43;;;;;;;7.28;4.88;;;10.30;99.90;;;;;;2112455;67;20205;-73
2021/12/17 13:35:24;;;;;;;4.93;4.00;;;10.00;99.90;;;;;;2103205;67;20205;-74
2021/12/17 13:38:02;;;;;;;4.78;4.22;;;10.00;99.90;;;;;;2111315;67;20339;-73
2021/12/17 13:40:39;;;;;;;4.95;3.67;;;10.00;99.90;;;;;;2113155;67;20218;-74
2021/12/17 13:43:27;;;;;;;5.18;3.97;;;10.00;99.90;;;;;;2120750;67;20619;-72
2021/12/17 13:46:20;;;;;;;4.65;3.95;;;10.00;99.90;;;;;;2142797;66;20294;-72
2021/12/17 13:49:16;;;;;;;4.30;3.90;;;10.00;99.90;;;;;;2159847;65;20259;-71
2021/12/17 13:51:55;;;;;;;5.90;4.22;;;10.00;99.90;;;;;;2175691;65;20208;-71
2021/12/17 13:54:34;;;;;;;5.80;4.00;;;10.90;99.90;;;;;;2174721;65;20712;-71
2021/12/17 13:57:17;;;;;;;6.88;4.28;;;10.00;99.90;;;;;;2185052;65;20191;-72
2021/12/17 14:00:06;;;;;;;5.22;4.00;;;10.00;99.90;;;;;;2207714;64;20394;-72
2021/12/17 14:02:47;;;;;;;5.95;4.30;;;10.00;99.90;;;;;;2237336;64;20211;-72
2021/12/17 14:05:29;;;;;;;7.00;5.43;;;10.00;99.90;;;;;;2237568;64;20277;-72
2021/12/17 14:08:19;;;;;;;;;;;10.00;99.90;;;;;;2221266;64;20226;-73
2021/12/17 14:11:00;;;;;;;6.32;4.30;;;10.00;99.90;;;;;;2218799;64;20231;-72
2021/12/17 14:13:42;;;;;;;6.55;4.75;;;10.00;99.90;;;;;;2229481;64;20352;-73
2021/12/17 14:16:37;;;;;;;6.97;4.93;;;10.00;99.90;;;;;;2213976;64;20619;-72
2021/12/17 14:19:16;;;;;;;6.25;5.22;;;10.00;99.90;;;;;;2213773;64;20681;-72
2021/12/17 14:22:27;;;;;;;7.00;5.00;;;9.90;99.90;;;;;;2213864;64;20205;-72
2021/12/17 14:25:23;;;;;;;6.72;4.70;;;10.00;99.90;;;;;;2206332;64;20237;-71
2021/12/17 14:28:24;;;;;;;6.70;5.00;;;9.90;99.90;;;;;;2214449;64;20192;-73
2021/12/17 14:31:09;;;;;;;8.43;5.20;;;9.90;99.90;;;;;;2213953;64;20168;-75
2021/12/17 14:33:59;;;;;;;7.55;5.80;;;9.90;99.90;;;;;;2205326;64;20283;-74
2021/12/17 14:36:41;;;;;;;9.00;5.85;;;9.90;99.90;;;;;;2190904;65;20435;-74
2021/12/17 14:39:33;;;;;;;7.68;5.50;;;9.90;99.90;;;;;;2190886;65;20242;-73
2021/12/17 14:42:32;;;;;;;6.72;5.22;;;9.90;99.90;;;;;;2198435;64;20331;-69
2021/12/17 14:45:20;;;;;;;6.90;5.38;;;9.90;99.90;;;;;;2205834;65;20264;-70
2021/12/17 14:48:45;;;;;;;6.65;5.13;;;9.90;99.90;;;;;;2190991;65;20162;-77
2021/12/17 15:03:47;;;;;;;8.98;5.88;;;9.80;99.90;;;;;;2153698;66;20894;-73
2021/12/17 15:06:30;;;;;;;7.75;5.80;;;9.80;99.90;;;;;;2146072;66;20258;-75
2021/12/17 15:09:14;;;;;;;8.40;6.03;;;9.80;99.90;;;;;;1901897;67;15201680;-75
2021/12/17 15:12:11;;;;;;;6.97;6.05;;;9.80;99.90;;;;;;2117698;67;20217;-76
2021/12/17 15:14:53;;;;;;;8.70;5.85;;;9.80;99.90;;;;;;2118169;67;20253;-73
2021/12/17 15:17:35;;;;;;;7.97;5.47;;;9.80;99.90;;;;;;2132872;67;20355;-74
2021/12/17 15:20:20;;;;;;;5.63;4.90;;;9.80;99.90;;;;;;2116323;67;20330;-73
2021/12/17 15:23:04;;;;;;;6.47;5.28;;;9.80;99.90;;;;;;2110067;67;20341;-73
2021/12/17 15:25:47;;;;;;;7.72;5.28;;;9.70;99.90;;;;;;2110541;67;20236;-73
2021/12/17 15:28:32;;;;;;;8.18;5.85;;;9.70;99.90;;;;;;2108930;67;20210;-73
2021/12/17 15:31:14;;;;;;;8.95;5.88;;;9.70;99.90;;;;;;2118417;67;20329;-72
2021/12/17 15:33:51;;;;;;;7.35;5.60;;;9.80;99.90;;;;;;2124930;67;20295;-71
2021/12/17 15:36:41;;;;;;;7.03;4.90;;;8.80;99.90;;;;;;2139566;66;20287;-72
2021/12/17 15:39:31;;;;;;;7.70;5.95;;;9.70;99.90;;;;;;2130274;67;20946;-72
2021/12/17 15:42:10;;;;;;;11.05;5.72;;;9.70;99.90;;;;;;2139042;67;20190;-72
2021/12/17 15:44:51;;;;;;;8.77;5.63;;;9.70;99.90;;;;;;2139084;67;20298;-75
2021/12/17 15:47:28;;;;;;;9.27;6.03;;;9.70;99.90;;;;;;2139386;66;20330;-71
2021/12/17 15:50:12;;;;;;;11.30;6.72;;;9.70;99.90;;;;;;2146314;66;20737;-72
2021/12/17 15:53:14;;;;;;;14.95;7.07;;;9.60;99.90;;;;;;2143235;66;20689;-71
2021/12/17 15:56:10;;;;;;;9.35;7.43;;;9.60;99.90;;;;;;2154856;66;20165;-71
2021/12/17 15:59:00;;;;;;;10.23;7.05;;;9.60;99.90;;;;;;2171601;65;20660;-71
2021/12/17 16:01:38;;;;;;;10.23;7.57;;;9.60;99.90;;;;;;2182960;65;20198;-71
2021/12/17 16:04:15;;;;;;;12.52;8.02;;;9.60;99.90;;;;;;2183028;65;20848;-71
2021/12/17 16:06:52;;;;;;;11.40;7.75;;;9.60;99.90;;;;;;2182866;65;21038;-72
2021/12/17 16:18:17;;;;;;;14.90;8.23;;;9.60;99.90;;;;;;2238603;63;20189;-71
2021/12/17 16:23:52;;;;;;;10.88;6.95;;;9.50;99.90;;;;;;2213040;64;20368;-73
2021/12/17 16:26:29;;;;;;;11.38;7.47;;;9.40;99.90;;;;;;2210914;64;20187;-71
2021/12/17 16:29:08;;;;;;;13.30;7.15;;;9.40;99.90;;;;;;2213179;64;20779;-71
2021/12/17 16:31:52;;;;;;;13.73;6.85;;;9.40;99.90;;;;;;2205093;65;20208;-71
2021/12/17 16:34:33;;;;;;;11.98;7.25;;;9.40;99.90;;;;;;2202267;64;20277;-71
2021/12/17 16:37:21;;;;;;;12.45;7.35;;;9.30;99.90;;;;;;2185372;65;20850;-72
2021/12/17 16:40:09;;;;;;;8.38;5.88;;;9.30;99.90;;;;;;2168759;66;20183;-70
2021/12/17 16:42:54;;;;;;;10.98;6.85;;;9.30;99.90;;;;;;2175530;65;20325;-72
2021/12/17 16:45:42;;;;;;;11.45;6.95;;;9.90;99.90;;;;;;2162029;66;20180;-71
2021/12/17 16:48:24;;;;;;;11.15;7.03;;;9.30;99.90;;;;;;2154241;66;20411;-73
2021/12/17 16:51:09;;;;;;;10.93;6.38;;;9.30;99.90;;;;;;2158724;66;20189;-72
2021/12/17 16:53:52;;;;;;;8.57;4.95;;;9.20;99.90;;;;;;2163530;66;20249;-73
2021/12/17 16:56:38;;;;;;;7.93;4.78;;;9.40;99.90;;;;;;2149894;66;21194;-72
2021/12/17 16:59:24;;;;;;;17.75;10.65;;;9.20;99.90;;;;;;2153929;66;20409;-71
2021/12/17 17:02:09;;;;;;;9.02;5.40;;;9.20;99.90;;;;;;2139197;67;20195;-71
2021/12/17 17:04:52;;;;;;;8.30;5.30;;;8.60;99.90;;;;;;2131283;67;20241;-70
2021/12/17 17:07:37;;;;;;;7.32;3.97;;;9.20;99.90;;;;;;2131006;67;20830;-71
2021/12/17 17:10:25;;;;;;;7.55;4.03;;;9.20;99.90;;;;;;2130404;66;20185;-72
2021/12/17 17:13:07;;;;;;;5.55;3.88;;;9.10;99.90;;;;;;2152739;66;21132;-70
2021/12/17 17:15:49;;;;;;;7.55;4.60;;;9.10;99.90;;;;;;2130031;67;20903;-69
2021/12/17 17:18:32;;;;;;;8.23;3.70;;;9.10;99.90;;;;;;2147841;66;20269;-69
2021/12/17 17:21:14;;;;;;;3.58;2.58;;;9.00;99.90;;;;;;2160280;66;20308;-71
2021/12/17 17:23:57;;;;;;;5.35;3.33;;;9.30;99.90;;;;;;2148126;66;20811;-71
2021/12/17 17:26:38;;;;;;;4.78;3.25;;;9.20;99.90;;;;;;2139877;66;20211;-70
2021/12/17 17:29:19;;;;;;;6.22;3.80;;;9.00;99.90;;;;;;2120385;67;20200;-69
2021/12/17 17:32:01;;;;;;;6.75;3.72;;;8.90;99.90;;;;;;2125386;67;20824;-70
2021/12/17 17:34:44;;;;;;;8.35;3.95;;;8.90;99.90;;;;;;2118320;67;20257;-71